SKW4213 KATL-KIAH
Flight info
| Callsign | SKW4213 |
|---|---|
| Flight time | N/A |
| Altitude | 30000 |
| Route | KAJIN2 STNGA MHZ AEX SKNRD5 |
| Aircraft | E75L/M-SDE3GILORVW/S |
Departure
| Time | 2026-05-07 16:17 |
|---|---|
| Airport | Hartsfield Jackson Atlanta International Airport (KATL) |
Arrival
| Time | N/A |
|---|---|
| Airport | George Bush Intercontinental Airport (KIAH) |
| Time | Latitude | Longitude | Altitude | Speed | Heading |
|---|---|---|---|---|---|
| 2026-05-07 15:59 | 33.64224 | -84.44193 | 1004 ft | 0 kts | 271° |
| 2026-05-07 16:05 | 33.64224 | -84.44178 | 1004 ft | 3 kts | 268° |
| 2026-05-07 16:05 | 33.64225 | -84.44155 | 1004 ft | 2 kts | 270° |
| 2026-05-07 16:05 | 33.64224 | -84.44136 | 1004 ft | 3 kts | 280° |
| 2026-05-07 16:05 | 33.64217 | -84.44114 | 1004 ft | 3 kts | 307° |
| 2026-05-07 16:06 | 33.64203 | -84.44099 | 1004 ft | 3 kts | 340° |
| 2026-05-07 16:06 | 33.64183 | -84.44096 | 1004 ft | 3 kts | 4° |
| 2026-05-07 16:06 | 33.64164 | -84.44101 | 1004 ft | 3 kts | 23° |
| 2026-05-07 16:06 | 33.64150 | -84.44113 | 1004 ft | 3 kts | 73° |
| 2026-05-07 16:07 | 33.64144 | -84.44115 | 1004 ft | 2 kts | 169° |
| 2026-05-07 16:07 | 33.64153 | -84.44115 | 1004 ft | 3 kts | 180° |
| 2026-05-07 16:07 | 33.64166 | -84.44115 | 1004 ft | 0 kts | 180° |
| 2026-05-07 16:11 | 33.64161 | -84.44115 | 1004 ft | 4 kts | 180° |
| 2026-05-07 16:11 | 33.64098 | -84.44116 | 1004 ft | 14 kts | 180° |
| 2026-05-07 16:12 | 33.63961 | -84.44116 | 1004 ft | 25 kts | 181° |
| 2026-05-07 16:12 | 33.63769 | -84.44118 | 1004 ft | 26 kts | 181° |
| 2026-05-07 16:12 | 33.63630 | -84.44058 | 1005 ft | 23 kts | 136° |
| 2026-05-07 16:12 | 33.63581 | -84.43874 | 1004 ft | 26 kts | 89° |
| 2026-05-07 16:13 | 33.63580 | -84.43644 | 1004 ft | 29 kts | 89° |
| 2026-05-07 16:13 | 33.63578 | -84.43385 | 1003 ft | 32 kts | 89° |
| 2026-05-07 16:13 | 33.63581 | -84.43108 | 1004 ft | 34 kts | 89° |
| 2026-05-07 16:13 | 33.63582 | -84.42815 | 1004 ft | 36 kts | 90° |
| 2026-05-07 16:14 | 33.63581 | -84.42515 | 1005 ft | 37 kts | 89° |
| 2026-05-07 16:14 | 33.63581 | -84.42216 | 1005 ft | 32 kts | 91° |
| 2026-05-07 16:14 | 33.63576 | -84.41944 | 1004 ft | 33 kts | 95° |
| 2026-05-07 16:14 | 33.63580 | -84.41683 | 1004 ft | 25 kts | 90° |
| 2026-05-07 16:15 | 33.63496 | -84.41615 | 1003 ft | 19 kts | 221° |
| 2026-05-07 16:15 | 33.63472 | -84.41707 | 1003 ft | 1 kts | 270° |
| 2026-05-07 16:15 | 33.63472 | -84.41711 | 1003 ft | 2 kts | 270° |
| 2026-05-07 16:16 | 33.63472 | -84.41758 | 1003 ft | 11 kts | 270° |
| 2026-05-07 16:16 | 33.63478 | -84.42060 | 1004 ft | 64 kts | 269° |
| 2026-05-07 16:16 | 33.63477 | -84.42829 | 1004 ft | 120 kts | 270° |
| 2026-05-07 16:16 | 33.63474 | -84.44008 | 1144 ft | 155 kts | 272° |
| 2026-05-07 16:17 | 33.63537 | -84.45395 | 1472 ft | 182 kts | 276° |
| 2026-05-07 16:17 | 33.63599 | -84.46939 | 2000 ft | 195 kts | 273° |
| 2026-05-07 16:17 | 33.63634 | -84.48660 | 2704 ft | 214 kts | 273° |
| 2026-05-07 16:17 | 33.63627 | -84.50408 | 3535 ft | 211 kts | 269° |
| 2026-05-07 16:18 | 33.63590 | -84.52241 | 4171 ft | 228 kts | 269° |
| 2026-05-07 16:18 | 33.63563 | -84.54193 | 4930 ft | 238 kts | 269° |
| 2026-05-07 16:18 | 33.63546 | -84.56183 | 5901 ft | 239 kts | 269° |
| 2026-05-07 16:18 | 33.63529 | -84.58185 | 6801 ft | 241 kts | 269° |
| 2026-05-07 16:19 | 33.63510 | -84.60202 | 7649 ft | 243 kts | 269° |
| 2026-05-07 16:19 | 33.63494 | -84.62235 | 8446 ft | 245 kts | 269° |
| 2026-05-07 16:19 | 33.63451 | -84.64285 | 9267 ft | 246 kts | 269° |
| 2026-05-07 16:19 | 33.63455 | -84.66319 | 10008 ft | 248 kts | 269° |
| 2026-05-07 16:20 | 33.63464 | -84.68396 | 10692 ft | 250 kts | 269° |
| 2026-05-07 16:20 | 33.63444 | -84.70530 | 11119 ft | 263 kts | 266° |
| 2026-05-07 16:20 | 33.63310 | -84.72765 | 11593 ft | 272 kts | 265° |
| 2026-05-07 16:20 | 33.63093 | -84.75023 | 12316 ft | 273 kts | 261° |
| 2026-05-07 16:21 | 33.62741 | -84.77260 | 13119 ft | 273 kts | 259° |
| 2026-05-07 16:21 | 33.62365 | -84.79507 | 13958 ft | 275 kts | 259° |
| 2026-05-07 16:21 | 33.61990 | -84.81754 | 14803 ft | 275 kts | 259° |
| 2026-05-07 16:21 | 33.61608 | -84.83975 | 15619 ft | 276 kts | 259° |
| 2026-05-07 16:22 | 33.61222 | -84.86226 | 16389 ft | 276 kts | 259° |
| 2026-05-07 16:22 | 33.60835 | -84.88482 | 17120 ft | 277 kts | 259° |
| 2026-05-07 16:22 | 33.60445 | -84.90744 | 17867 ft | 277 kts | 258° |
| 2026-05-07 16:22 | 33.60047 | -84.93013 | 18529 ft | 279 kts | 258° |
| 2026-05-07 16:23 | 33.59652 | -84.95302 | 19092 ft | 282 kts | 258° |
| 2026-05-07 16:23 | 33.59256 | -84.97615 | 19649 ft | 284 kts | 259° |
| 2026-05-07 16:23 | 33.58852 | -84.99950 | 20230 ft | 287 kts | 257° |
| 2026-05-07 16:23 | 33.58448 | -85.02310 | 20825 ft | 291 kts | 259° |
| 2026-05-07 16:24 | 33.58050 | -85.04708 | 21371 ft | 296 kts | 259° |
| 2026-05-07 16:24 | 33.57650 | -85.07088 | 21994 ft | 297 kts | 258° |
| 2026-05-07 16:24 | 33.57218 | -85.09521 | 22527 ft | 300 kts | 257° |
| 2026-05-07 16:24 | 33.56788 | -85.11987 | 23049 ft | 304 kts | 259° |
| 2026-05-07 16:25 | 33.56362 | -85.14483 | 23590 ft | 307 kts | 258° |
| 2026-05-07 16:25 | 33.55922 | -85.17003 | 24041 ft | 310 kts | 258° |
| 2026-05-07 16:25 | 33.55505 | -85.19551 | 24465 ft | 312 kts | 258° |
| 2026-05-07 16:25 | 33.55037 | -85.22102 | 24903 ft | 315 kts | 257° |
| 2026-05-07 16:26 | 33.54563 | -85.24674 | 25337 ft | 317 kts | 257° |
| 2026-05-07 16:26 | 33.54091 | -85.27226 | 25756 ft | 319 kts | 257° |
| 2026-05-07 16:26 | 33.53609 | -85.29831 | 26170 ft | 321 kts | 257° |
| 2026-05-07 16:26 | 33.53122 | -85.32460 | 26536 ft | 323 kts | 257° |
| 2026-05-07 16:27 | 33.52634 | -85.35098 | 26950 ft | 326 kts | 257° |
| 2026-05-07 16:27 | 33.52142 | -85.37754 | 27338 ft | 328 kts | 257° |
| 2026-05-07 16:27 | 33.51645 | -85.40432 | 27737 ft | 330 kts | 256° |
| 2026-05-07 16:27 | 33.51146 | -85.43123 | 28119 ft | 332 kts | 256° |
| 2026-05-07 16:28 | 33.50640 | -85.45839 | 28442 ft | 335 kts | 256° |
| 2026-05-07 16:28 | 33.50138 | -85.48536 | 28809 ft | 337 kts | 256° |
| 2026-05-07 16:28 | 33.49619 | -85.51324 | 29163 ft | 339 kts | 256° |
| 2026-05-07 16:28 | 33.49109 | -85.54050 | 29500 ft | 341 kts | 256° |
| 2026-05-07 16:29 | 33.48589 | -85.56837 | 29812 ft | 344 kts | 256° |
| 2026-05-07 16:29 | 33.48068 | -85.59618 | 29940 ft | 345 kts | 256° |
| 2026-05-07 16:29 | 33.47536 | -85.62456 | 29996 ft | 353 kts | 256° |
| 2026-05-07 16:30 | 33.46442 | -85.68286 | 29996 ft | 358 kts | 256° |
| 2026-05-07 16:30 | 33.45350 | -85.74087 | 30004 ft | 358 kts | 256° |
| 2026-05-07 16:31 | 33.44261 | -85.79855 | 29999 ft | 359 kts | 256° |
| 2026-05-07 16:31 | 33.43161 | -85.85670 | 30009 ft | 358 kts | 256° |
| 2026-05-07 16:32 | 33.42059 | -85.91475 | 30001 ft | 357 kts | 256° |
| 2026-05-07 16:32 | 33.40961 | -85.97241 | 29994 ft | 358 kts | 256° |
| 2026-05-07 16:33 | 33.39854 | -86.03047 | 29981 ft | 357 kts | 256° |
| 2026-05-07 16:33 | 33.38745 | -86.08845 | 29989 ft | 358 kts | 256° |
| 2026-05-07 16:34 | 33.37632 | -86.14645 | 30021 ft | 358 kts | 256° |
| 2026-05-07 16:34 | 33.36518 | -86.20439 | 30042 ft | 356 kts | 256° |
| 2026-05-07 16:35 | 33.35411 | -86.26177 | 30017 ft | 356 kts | 256° |
| 2026-05-07 16:35 | 33.34304 | -86.31901 | 30027 ft | 356 kts | 256° |
| 2026-05-07 16:36 | 33.33185 | -86.37671 | 30029 ft | 356 kts | 256° |
| 2026-05-07 16:36 | 33.32063 | -86.43442 | 30026 ft | 356 kts | 256° |
| 2026-05-07 16:37 | 33.30946 | -86.49175 | 30029 ft | 356 kts | 256° |
| 2026-05-07 16:37 | 33.29818 | -86.54946 | 30024 ft | 357 kts | 255° |
| 2026-05-07 16:38 | 33.28688 | -86.60714 | 30021 ft | 356 kts | 256° |
| 2026-05-07 16:38 | 33.27557 | -86.66473 | 30044 ft | 357 kts | 256° |
| 2026-05-07 16:39 | 33.26421 | -86.72238 | 30035 ft | 356 kts | 256° |
| 2026-05-07 16:39 | 33.25291 | -86.77964 | 30047 ft | 357 kts | 256° |
| 2026-05-07 16:40 | 33.24149 | -86.83727 | 30038 ft | 357 kts | 256° |
| 2026-05-07 16:40 | 33.23006 | -86.89489 | 30068 ft | 356 kts | 256° |
| 2026-05-07 16:41 | 33.21864 | -86.95227 | 30079 ft | 355 kts | 256° |
| 2026-05-07 16:41 | 33.20731 | -87.00904 | 30057 ft | 354 kts | 255° |
| 2026-05-07 16:42 | 33.19586 | -87.06626 | 30060 ft | 354 kts | 255° |